sensor_id;sensor_type;location;lat;lon;timestamp;temperature;humidity
21772;DHT22;11047;47.904;8.110;2023-04-24T00:00:16;8.80;99.90
21772;DHT22;11047;47.904;8.110;2023-04-24T00:02:44;8.60;99.90
21772;DHT22;11047;47.904;8.110;2023-04-24T00:05:13;8.60;99.90
21772;DHT22;11047;47.904;8.110;2023-04-24T00:07:40;8.70;99.90
21772;DHT22;11047;47.904;8.110;2023-04-24T00:10:08;8.70;99.90
21772;DHT22;11047;47.904;8.110;2023-04-24T00:12:36;8.70;99.90
21772;DHT22;11047;47.904;8.110;2023-04-24T00:15:04;8.70;99.90
21772;DHT22;11047;47.904;8.110;2023-04-24T00:17:31;8.70;99.90
21772;DHT22;11047;47.904;8.110;2023-04-24T00:19:58;8.80;99.90
21772;DHT22;11047;47.904;8.110;2023-04-24T00:22:25;8.80;99.90
21772;DHT22;11047;47.904;8.110;2023-04-24T00:24:52;8.70;99.90
21772;DHT22;11047;47.904;8.110;2023-04-24T00:27:19;8.70;99.90
21772;DHT22;11047;47.904;8.110;2023-04-24T00:29:47;8.60;99.90
21772;DHT22;11047;47.904;8.110;2023-04-24T00:32:14;8.70;99.90
21772;DHT22;11047;47.904;8.110;2023-04-24T00:34:41;8.80;99.90
21772;DHT22;11047;47.904;8.110;2023-04-24T00:37:08;8.70;99.90
21772;DHT22;11047;47.904;8.110;2023-04-24T00:39:35;8.70;99.90
21772;DHT22;11047;47.904;8.110;2023-04-24T00:42:02;8.70;99.90
21772;DHT22;11047;47.904;8.110;2023-04-24T00:44:31;8.70;99.90
21772;DHT22;11047;47.904;8.110;2023-04-24T00:47:00;8.70;99.90
21772;DHT22;11047;47.904;8.110;2023-04-24T00:49:27;8.70;99.90
21772;DHT22;11047;47.904;8.110;2023-04-24T00:51:54;8.70;99.90
21772;DHT22;11047;47.904;8.110;2023-04-24T00:54:22;8.90;99.90
21772;DHT22;11047;47.904;8.110;2023-04-24T00:56:49;8.80;99.90
21772;DHT22;11047;47.904;8.110;2023-04-24T00:59:17;8.60;99.90
21772;DHT22;11047;47.904;8.110;2023-04-24T01:01:44;8.60;99.90
21772;DHT22;11047;47.904;8.110;2023-04-24T01:04:13;8.50;99.90
21772;DHT22;11047;47.904;8.110;2023-04-24T01:07:08;8.40;99.90
21772;DHT22;11047;47.904;8.110;2023-04-24T01:09:37;8.40;99.90
21772;DHT22;11047;47.904;8.110;2023-04-24T01:12:04;8.30;99.90
21772;DHT22;11047;47.904;8.110;2023-04-24T01:14:31;8.20;99.90
21772;DHT22;11047;47.904;8.110;2023-04-24T01:16:58;8.30;99.90
21772;DHT22;11047;47.904;8.110;2023-04-24T01:19:27;8.20;99.90
21772;DHT22;11047;47.904;8.110;2023-04-24T01:21:58;8.40;99.90
21772;DHT22;11047;47.904;8.110;2023-04-24T01:24:28;8.20;99.90
21772;DHT22;11047;47.904;8.110;2023-04-24T01:26:55;8.20;99.90
21772;DHT22;11047;47.904;8.110;2023-04-24T01:29:22;8.10;99.90
21772;DHT22;11047;47.904;8.110;2023-04-24T01:31:50;8.10;99.90
21772;DHT22;11047;47.904;8.110;2023-04-24T01:34:17;8.00;99.90
21772;DHT22;11047;47.904;8.110;2023-04-24T01:36:45;8.20;99.90
21772;DHT22;11047;47.904;8.110;2023-04-24T01:39:12;8.00;99.90
21772;DHT22;11047;47.904;8.110;2023-04-24T01:41:42;8.00;99.90
21772;DHT22;11047;47.904;8.110;2023-04-24T01:44:09;8.00;99.90
21772;DHT22;11047;47.904;8.110;2023-04-24T01:46:36;8.10;99.90
21772;DHT22;11047;47.904;8.110;2023-04-24T01:49:03;8.00;99.90
21772;DHT22;11047;47.904;8.110;2023-04-24T01:51:31;8.00;99.90
21772;DHT22;11047;47.904;8.110;2023-04-24T01:53:58;8.30;99.90
21772;DHT22;11047;47.904;8.110;2023-04-24T01:56:25;8.10;99.90
21772;DHT22;11047;47.904;8.110;2023-04-24T01:58:56;8.00;99.90
21772;DHT22;11047;47.904;8.110;2023-04-24T02:01:24;8.10;99.90
21772;DHT22;11047;47.904;8.110;2023-04-24T02:03:51;8.10;99.90
21772;DHT22;11047;47.904;8.110;2023-04-24T02:06:18;8.10;99.90
21772;DHT22;11047;47.904;8.110;2023-04-24T02:08:45;8.10;99.90
21772;DHT22;11047;47.904;8.110;2023-04-24T02:11:11;8.10;99.90
21772;DHT22;11047;47.904;8.110;2023-04-24T02:13:38;8.60;99.90
21772;DHT22;11047;47.904;8.110;2023-04-24T02:16:07;8.00;99.90
21772;DHT22;11047;47.904;8.110;2023-04-24T02:18:34;8.00;99.90
21772;DHT22;11047;47.904;8.110;2023-04-24T02:21:00;8.10;99.90
21772;DHT22;11047;47.904;8.110;2023-04-24T02:23:27;8.10;99.90
21772;DHT22;11047;47.904;8.110;2023-04-24T02:25:54;8.10;99.90
21772;DHT22;11047;47.904;8.110;2023-04-24T02:28:21;7.90;99.90
21772;DHT22;11047;47.904;8.110;2023-04-24T02:30:48;7.90;99.90
21772;DHT22;11047;47.904;8.110;2023-04-24T02:33:16;8.00;99.90
21772;DHT22;11047;47.904;8.110;2023-04-24T02:35:43;8.10;99.90
21772;DHT22;11047;47.904;8.110;2023-04-24T02:38:10;7.90;99.90
21772;DHT22;11047;47.904;8.110;2023-04-24T02:40:37;7.90;99.90
21772;DHT22;11047;47.904;8.110;2023-04-24T02:43:04;7.80;99.90
21772;DHT22;11047;47.904;8.110;2023-04-24T02:45:30;7.90;99.90
21772;DHT22;11047;47.904;8.110;2023-04-24T02:48:00;7.80;99.90
21772;DHT22;11047;47.904;8.110;2023-04-24T02:50:28;7.80;99.90
21772;DHT22;11047;47.904;8.110;2023-04-24T02:52:55;7.80;99.90
21772;DHT22;11047;47.904;8.110;2023-04-24T02:55:22;8.00;99.90
21772;DHT22;11047;47.904;8.110;2023-04-24T02:57:48;8.40;99.90
21772;DHT22;11047;47.904;8.110;2023-04-24T03:00:16;8.40;99.90
21772;DHT22;11047;47.904;8.110;2023-04-24T03:02:42;7.80;99.90
21772;DHT22;11047;47.904;8.110;2023-04-24T03:05:09;7.90;99.90
21772;DHT22;11047;47.904;8.110;2023-04-24T03:07:38;7.90;99.90
21772;DHT22;11047;47.904;8.110;2023-04-24T03:10:07;7.80;99.90
21772;DHT22;11047;47.904;8.110;2023-04-24T03:12:34;7.80;99.90
21772;DHT22;11047;47.904;8.110;2023-04-24T03:15:01;7.80;99.90
21772;DHT22;11047;47.904;8.110;2023-04-24T03:17:28;7.90;99.90
21772;DHT22;11047;47.904;8.110;2023-04-24T03:19:54;7.80;99.90
21772;DHT22;11047;47.904;8.110;2023-04-24T03:22:21;7.90;99.90
21772;DHT22;11047;47.904;8.110;2023-04-24T03:24:50;7.80;99.90
21772;DHT22;11047;47.904;8.110;2023-04-24T03:27:17;7.70;99.90
21772;DHT22;11047;47.904;8.110;2023-04-24T03:29:43;7.70;99.90
21772;DHT22;11047;47.904;8.110;2023-04-24T03:32:10;7.70;99.90
21772;DHT22;11047;47.904;8.110;2023-04-24T03:34:37;7.70;99.90
21772;DHT22;11047;47.904;8.110;2023-04-24T03:37:04;7.70;99.90
21772;DHT22;11047;47.904;8.110;2023-04-24T03:39:31;7.60;99.90
21772;DHT22;11047;47.904;8.110;2023-04-24T03:41:59;7.70;99.90
21772;DHT22;11047;47.904;8.110;2023-04-24T03:44:26;7.60;99.90
21772;DHT22;11047;47.904;8.110;2023-04-24T03:46:53;7.60;99.90
21772;DHT22;11047;47.904;8.110;2023-04-24T03:49:20;7.60;99.90
21772;DHT22;11047;47.904;8.110;2023-04-24T03:51:47;7.60;99.90
21772;DHT22;11047;47.904;8.110;2023-04-24T03:54:14;8.10;99.90
21772;DHT22;11047;47.904;8.110;2023-04-24T03:56:41;7.50;99.90
21772;DHT22;11047;47.904;8.110;2023-04-24T03:59:09;7.50;99.90
21772;DHT22;11047;47.904;8.110;2023-04-24T04:01:36;7.50;99.90
21772;DHT22;11047;47.904;8.110;2023-04-24T04:04:03;7.40;99.90
21772;DHT22;11047;47.904;8.110;2023-04-24T04:06:30;7.50;99.90
21772;DHT22;11047;47.904;8.110;2023-04-24T04:08:57;7.40;99.90
21772;DHT22;11047;47.904;8.110;2023-04-24T04:11:25;7.50;99.90
21772;DHT22;11047;47.904;8.110;2023-04-24T04:13:52;7.30;99.90
21772;DHT22;11047;47.904;8.110;2023-04-24T04:16:20;7.30;99.90
21772;DHT22;11047;47.904;8.110;2023-04-24T04:18:47;7.20;99.90
21772;DHT22;11047;47.904;8.110;2023-04-24T04:21:14;7.10;99.90
21772;DHT22;11047;47.904;8.110;2023-04-24T04:23:41;7.10;99.90
21772;DHT22;11047;47.904;8.110;2023-04-24T04:26:08;7.00;99.90
21772;DHT22;11047;47.904;8.110;2023-04-24T04:28:34;7.10;99.90
21772;DHT22;11047;47.904;8.110;2023-04-24T04:31:03;7.10;99.90
21772;DHT22;11047;47.904;8.110;2023-04-24T04:33:31;7.00;99.90
21772;DHT22;11047;47.904;8.110;2023-04-24T04:35:58;7.00;99.90
21772;DHT22;11047;47.904;8.110;2023-04-24T04:38:25;6.90;99.90
21772;DHT22;11047;47.904;8.110;2023-04-24T04:40:55;6.90;99.90
21772;DHT22;11047;47.904;8.110;2023-04-24T04:43:23;6.90;99.90
21772;DHT22;11047;47.904;8.110;2023-04-24T04:45:50;7.00;99.90
21772;DHT22;11047;47.904;8.110;2023-04-24T04:48:17;7.00;99.90
21772;DHT22;11047;47.904;8.110;2023-04-24T04:50:45;7.00;99.90
21772;DHT22;11047;47.904;8.110;2023-04-24T04:53:12;7.00;99.90
21772;DHT22;11047;47.904;8.110;2023-04-24T04:55:39;7.10;99.90
21772;DHT22;11047;47.904;8.110;2023-04-24T04:58:06;7.00;99.90
21772;DHT22;11047;47.904;8.110;2023-04-24T05:00:33;7.10;99.90
21772;DHT22;11047;47.904;8.110;2023-04-24T05:03:01;7.00;99.90
21772;DHT22;11047;47.904;8.110;2023-04-24T05:05:28;7.40;99.90
21772;DHT22;11047;47.904;8.110;2023-04-24T05:07:56;7.10;99.90
21772;DHT22;11047;47.904;8.110;2023-04-24T05:10:23;7.20;99.90
21772;DHT22;11047;47.904;8.110;2023-04-24T05:12:50;7.10;99.90
21772;DHT22;11047;47.904;8.110;2023-04-24T05:15:17;7.20;99.90
21772;DHT22;11047;47.904;8.110;2023-04-24T05:17:44;7.10;99.90
21772;DHT22;11047;47.904;8.110;2023-04-24T05:20:11;7.10;99.90
21772;DHT22;11047;47.904;8.110;2023-04-24T05:22:38;7.50;99.90
21772;DHT22;11047;47.904;8.110;2023-04-24T05:25:07;7.20;99.90
21772;DHT22;11047;47.904;8.110;2023-04-24T05:27:34;7.20;99.90
21772;DHT22;11047;47.904;8.110;2023-04-24T05:30:01;7.30;99.90
21772;DHT22;11047;47.904;8.110;2023-04-24T05:32:28;7.30;99.90
21772;DHT22;11047;47.904;8.110;2023-04-24T05:34:55;7.30;99.90
21772;DHT22;11047;47.904;8.110;2023-04-24T05:37:22;7.70;99.90
21772;DHT22;11047;47.904;8.110;2023-04-24T05:39:49;8.00;99.90
21772;DHT22;11047;47.904;8.110;2023-04-24T05:42:17;7.80;99.90
21772;DHT22;11047;47.904;8.110;2023-04-24T05:44:44;7.80;99.90
21772;DHT22;11047;47.904;8.110;2023-04-24T05:47:11;7.40;99.90
21772;DHT22;11047;47.904;8.110;2023-04-24T05:49:38;7.80;99.90
21772;DHT22;11047;47.904;8.110;2023-04-24T05:52:04;7.90;99.90
21772;DHT22;11047;47.904;8.110;2023-04-24T05:54:34;7.30;99.90
21772;DHT22;11047;47.904;8.110;2023-04-24T05:57:02;7.40;99.90
21772;DHT22;11047;47.904;8.110;2023-04-24T05:59:37;7.30;99.90
21772;DHT22;11047;47.904;8.110;2023-04-24T06:02:06;7.30;99.90
21772;DHT22;11047;47.904;8.110;2023-04-24T06:04:33;7.30;99.90
21772;DHT22;11047;47.904;8.110;2023-04-24T06:07:00;7.20;99.90
21772;DHT22;11047;47.904;8.110;2023-04-24T06:09:27;7.30;99.90
21772;DHT22;11047;47.904;8.110;2023-04-24T06:11:53;7.20;99.90
21772;DHT22;11047;47.904;8.110;2023-04-24T06:14:22;7.50;99.90
21772;DHT22;11047;47.904;8.110;2023-04-24T06:16:50;7.20;99.90
21772;DHT22;11047;47.904;8.110;2023-04-24T06:19:17;7.20;99.90
21772;DHT22;11047;47.904;8.110;2023-04-24T06:21:44;7.50;99.90
21772;DHT22;11047;47.904;8.110;2023-04-24T06:24:13;7.30;99.90
21772;DHT22;11047;47.904;8.110;2023-04-24T06:26:41;7.40;99.90
21772;DHT22;11047;47.904;8.110;2023-04-24T06:29:07;7.70;99.90
21772;DHT22;11047;47.904;8.110;2023-04-24T06:31:34;7.80;99.90
21772;DHT22;11047;47.904;8.110;2023-04-24T06:34:04;7.40;99.90
21772;DHT22;11047;47.904;8.110;2023-04-24T06:36:31;7.30;99.90
21772;DHT22;11047;47.904;8.110;2023-04-24T06:39:00;7.30;99.90
21772;DHT22;11047;47.904;8.110;2023-04-24T06:41:27;7.70;99.90
21772;DHT22;11047;47.904;8.110;2023-04-24T06:43:54;7.30;99.90
21772;DHT22;11047;47.904;8.110;2023-04-24T06:46:21;7.60;99.90
21772;DHT22;11047;47.904;8.110;2023-04-24T06:48:51;7.40;99.90
21772;DHT22;11047;47.904;8.110;2023-04-24T06:51:22;7.30;99.90
21772;DHT22;11047;47.904;8.110;2023-04-24T06:53:49;7.00;99.90
21772;DHT22;11047;47.904;8.110;2023-04-24T06:56:16;7.30;99.90
21772;DHT22;11047;47.904;8.110;2023-04-24T06:58:43;6.70;99.90
21772;DHT22;11047;47.904;8.110;2023-04-24T07:01:10;6.70;99.90
21772;DHT22;11047;47.904;8.110;2023-04-24T07:03:38;6.60;99.90
21772;DHT22;11047;47.904;8.110;2023-04-24T07:06:05;6.50;99.90
21772;DHT22;11047;47.904;8.110;2023-04-24T07:08:33;6.60;99.90
21772;DHT22;11047;47.904;8.110;2023-04-24T07:11:01;7.10;99.90
21772;DHT22;11047;47.904;8.110;2023-04-24T07:13:28;6.60;99.90
21772;DHT22;11047;47.904;8.110;2023-04-24T07:15:55;6.70;99.90
21772;DHT22;11047;47.904;8.110;2023-04-24T07:18:22;6.70;99.90
21772;DHT22;11047;47.904;8.110;2023-04-24T07:20:49;6.80;99.90
21772;DHT22;11047;47.904;8.110;2023-04-24T07:23:16;6.70;99.90
21772;DHT22;11047;47.904;8.110;2023-04-24T07:25:45;6.80;99.90
21772;DHT22;11047;47.904;8.110;2023-04-24T07:28:12;6.90;99.90
21772;DHT22;11047;47.904;8.110;2023-04-24T07:30:39;7.80;99.90
21772;DHT22;11047;47.904;8.110;2023-04-24T07:33:06;7.80;99.90
21772;DHT22;11047;47.904;8.110;2023-04-24T07:35:33;7.70;99.90
21772;DHT22;11047;47.904;8.110;2023-04-24T07:38:00;7.70;99.90
21772;DHT22;11047;47.904;8.110;2023-04-24T07:40:38;7.90;99.90
21772;DHT22;11047;47.904;8.110;2023-04-24T07:43:07;9.40;99.90
21772;DHT22;11047;47.904;8.110;2023-04-24T07:45:34;9.60;99.90
21772;DHT22;11047;47.904;8.110;2023-04-24T07:48:02;9.40;99.90
21772;DHT22;11047;47.904;8.110;2023-04-24T07:50:29;8.80;99.90
21772;DHT22;11047;47.904;8.110;2023-04-24T07:52:56;8.80;99.90
21772;DHT22;11047;47.904;8.110;2023-04-24T07:55:23;8.60;99.90
21772;DHT22;11047;47.904;8.110;2023-04-24T07:57:51;8.20;99.90
21772;DHT22;11047;47.904;8.110;2023-04-24T08:00:19;8.30;99.90
21772;DHT22;11047;47.904;8.110;2023-04-24T08:02:46;8.60;99.90
21772;DHT22;11047;47.904;8.110;2023-04-24T08:05:13;8.70;99.90
21772;DHT22;11047;47.904;8.110;2023-04-24T08:07:40;8.50;99.90
21772;DHT22;11047;47.904;8.110;2023-04-24T08:10:10;8.50;99.90
21772;DHT22;11047;47.904;8.110;2023-04-24T08:12:38;8.60;99.90
21772;DHT22;11047;47.904;8.110;2023-04-24T08:15:06;8.60;99.90
21772;DHT22;11047;47.904;8.110;2023-04-24T08:17:35;8.60;99.90
21772;DHT22;11047;47.904;8.110;2023-04-24T08:20:02;8.70;99.90
21772;DHT22;11047;47.904;8.110;2023-04-24T08:22:30;8.30;99.90
21772;DHT22;11047;47.904;8.110;2023-04-24T08:24:59;8.40;99.90
21772;DHT22;11047;47.904;8.110;2023-04-24T08:27:27;8.20;99.90
21772;DHT22;11047;47.904;8.110;2023-04-24T08:29:54;8.10;99.90
21772;DHT22;11047;47.904;8.110;2023-04-24T08:32:21;8.00;99.90
21772;DHT22;11047;47.904;8.110;2023-04-24T08:34:49;7.90;99.90
21772;DHT22;11047;47.904;8.110;2023-04-24T08:37:18;8.20;99.90
21772;DHT22;11047;47.904;8.110;2023-04-24T08:39:45;8.50;99.90
21772;DHT22;11047;47.904;8.110;2023-04-24T08:42:13;8.50;99.90
21772;DHT22;11047;47.904;8.110;2023-04-24T08:44:42;8.50;99.90
21772;DHT22;11047;47.904;8.110;2023-04-24T08:47:08;8.20;99.90
21772;DHT22;11047;47.904;8.110;2023-04-24T08:49:36;8.40;99.90
21772;DHT22;11047;47.904;8.110;2023-04-24T08:52:05;8.10;99.90
21772;DHT22;11047;47.904;8.110;2023-04-24T08:54:34;8.30;99.90
21772;DHT22;11047;47.904;8.110;2023-04-24T08:57:02;8.30;99.90
21772;DHT22;11047;47.904;8.110;2023-04-24T08:59:34;8.20;99.90
21772;DHT22;11047;47.904;8.110;2023-04-24T09:02:03;8.20;99.90
21772;DHT22;11047;47.904;8.110;2023-04-24T09:04:30;8.30;99.90
21772;DHT22;11047;47.904;8.110;2023-04-24T09:06:58;8.00;99.90
21772;DHT22;11047;47.904;8.110;2023-04-24T09:09:30;8.10;99.90
21772;DHT22;11047;47.904;8.110;2023-04-24T09:11:58;8.10;99.90
21772;DHT22;11047;47.904;8.110;2023-04-24T09:14:26;8.10;99.90
21772;DHT22;11047;47.904;8.110;2023-04-24T09:16:53;7.90;99.90
21772;DHT22;11047;47.904;8.110;2023-04-24T09:19:20;7.80;99.90
21772;DHT22;11047;47.904;8.110;2023-04-24T09:21:48;7.60;99.90
21772;DHT22;11047;47.904;8.110;2023-04-24T09:24:16;7.80;99.90
21772;DHT22;11047;47.904;8.110;2023-04-24T09:27:10;7.60;99.90
21772;DHT22;11047;47.904;8.110;2023-04-24T09:29:57;7.50;99.90
21772;DHT22;11047;47.904;8.110;2023-04-24T09:32:24;7.40;99.90
21772;DHT22;11047;47.904;8.110;2023-04-24T09:35:05;7.30;99.90
21772;DHT22;11047;47.904;8.110;2023-04-24T09:37:36;7.30;99.90
21772;DHT22;11047;47.904;8.110;2023-04-24T09:40:14;7.30;99.90
21772;DHT22;11047;47.904;8.110;2023-04-24T09:42:45;7.60;99.90
21772;DHT22;11047;47.904;8.110;2023-04-24T09:45:12;7.60;99.90
21772;DHT22;11047;47.904;8.110;2023-04-24T09:47:39;8.00;99.90
21772;DHT22;11047;47.904;8.110;2023-04-24T09:50:11;7.80;99.90
21772;DHT22;11047;47.904;8.110;2023-04-24T09:52:42;7.60;99.90
21772;DHT22;11047;47.904;8.110;2023-04-24T09:55:18;7.70;99.90
21772;DHT22;11047;47.904;8.110;2023-04-24T09:58:00;7.50;99.90
21772;DHT22;11047;47.904;8.110;2023-04-24T10:00:32;7.40;99.90
21772;DHT22;11047;47.904;8.110;2023-04-24T10:03:00;7.50;99.90
21772;DHT22;11047;47.904;8.110;2023-04-24T10:05:29;7.30;99.90
21772;DHT22;11047;47.904;8.110;2023-04-24T10:07:57;7.30;99.90
21772;DHT22;11047;47.904;8.110;2023-04-24T10:10:24;7.20;99.90
21772;DHT22;11047;47.904;8.110;2023-04-24T10:12:51;7.00;99.90
21772;DHT22;11047;47.904;8.110;2023-04-24T10:15:20;6.90;99.90
21772;DHT22;11047;47.904;8.110;2023-04-24T10:17:48;6.80;99.90
21772;DHT22;11047;47.904;8.110;2023-04-24T10:20:22;6.80;99.90
21772;DHT22;11047;47.904;8.110;2023-04-24T10:22:51;6.60;99.90
21772;DHT22;11047;47.904;8.110;2023-04-24T10:25:19;6.80;99.90
21772;DHT22;11047;47.904;8.110;2023-04-24T10:27:47;6.80;99.90
21772;DHT22;11047;47.904;8.110;2023-04-24T10:30:15;6.80;99.90
21772;DHT22;11047;47.904;8.110;2023-04-24T10:32:44;6.90;99.90
21772;DHT22;11047;47.904;8.110;2023-04-24T10:35:13;6.90;99.90
21772;DHT22;11047;47.904;8.110;2023-04-24T10:37:44;7.00;99.90
21772;DHT22;11047;47.904;8.110;2023-04-24T10:40:17;7.10;99.90
21772;DHT22;11047;47.904;8.110;2023-04-24T10:42:47;7.20;99.90
21772;DHT22;11047;47.904;8.110;2023-04-24T10:45:17;7.20;99.90
21772;DHT22;11047;47.904;8.110;2023-04-24T10:47:59;7.40;99.90
21772;DHT22;11047;47.904;8.110;2023-04-24T10:50:50;7.40;99.90
21772;DHT22;11047;47.904;8.110;2023-04-24T10:53:46;7.20;99.90
21772;DHT22;11047;47.904;8.110;2023-04-24T10:56:16;7.30;99.90
21772;DHT22;11047;47.904;8.110;2023-04-24T10:58:47;7.10;99.90
21772;DHT22;11047;47.904;8.110;2023-04-24T11:01:25;7.20;99.90
21772;DHT22;11047;47.904;8.110;2023-04-24T11:03:56;7.10;99.90
21772;DHT22;11047;47.904;8.110;2023-04-24T11:06:34;7.20;99.90
21772;DHT22;11047;47.904;8.110;2023-04-24T11:09:03;7.20;99.90
21772;DHT22;11047;47.904;8.110;2023-04-24T11:11:32;7.50;99.90
21772;DHT22;11047;47.904;8.110;2023-04-24T11:14:07;7.60;99.90
21772;DHT22;11047;47.904;8.110;2023-04-24T11:16:39;7.80;99.90
21772;DHT22;11047;47.904;8.110;2023-04-24T11:19:17;7.90;99.90
21772;DHT22;11047;47.904;8.110;2023-04-24T11:24:50;8.00;99.90
21772;DHT22;11047;47.904;8.110;2023-04-24T11:27:18;8.00;99.90
21772;DHT22;11047;47.904;8.110;2023-04-24T11:29:47;8.10;99.90
21772;DHT22;11047;47.904;8.110;2023-04-24T11:32:26;8.00;99.90
21772;DHT22;11047;47.904;8.110;2023-04-24T11:34:55;8.00;99.90
21772;DHT22;11047;47.904;8.110;2023-04-24T11:37:23;7.90;99.90
21772;DHT22;11047;47.904;8.110;2023-04-24T11:39:52;7.70;99.90
21772;DHT22;11047;47.904;8.110;2023-04-24T11:42:20;7.80;99.90
21772;DHT22;11047;47.904;8.110;2023-04-24T11:44:48;8.40;99.90
21772;DHT22;11047;47.904;8.110;2023-04-24T11:47:28;7.50;99.90
21772;DHT22;11047;47.904;8.110;2023-04-24T11:49:57;7.60;99.90
21772;DHT22;11047;47.904;8.110;2023-04-24T11:52:24;7.60;99.90
21772;DHT22;11047;47.904;8.110;2023-04-24T11:54:51;7.80;99.90
21772;DHT22;11047;47.904;8.110;2023-04-24T11:57:19;7.90;99.90
21772;DHT22;11047;47.904;8.110;2023-04-24T11:59:47;7.90;99.90
21772;DHT22;11047;47.904;8.110;2023-04-24T12:02:20;7.80;99.90
21772;DHT22;11047;47.904;8.110;2023-04-24T12:04:48;8.10;99.90
21772;DHT22;11047;47.904;8.110;2023-04-24T12:07:16;8.20;99.90
21772;DHT22;11047;47.904;8.110;2023-04-24T12:09:47;8.10;99.90
21772;DHT22;11047;47.904;8.110;2023-04-24T12:12:16;8.00;99.90
21772;DHT22;11047;47.904;8.110;2023-04-24T12:14:45;8.20;99.90
21772;DHT22;11047;47.904;8.110;2023-04-24T12:17:14;8.00;99.90
21772;DHT22;11047;47.904;8.110;2023-04-24T12:19:46;8.50;99.90
21772;DHT22;11047;47.904;8.110;2023-04-24T12:22:13;8.10;99.90
21772;DHT22;11047;47.904;8.110;2023-04-24T12:24:59;8.10;99.90
21772;DHT22;11047;47.904;8.110;2023-04-24T12:27:26;8.00;99.90
21772;DHT22;11047;47.904;8.110;2023-04-24T12:29:55;8.00;99.90
21772;DHT22;11047;47.904;8.110;2023-04-24T12:32:22;7.90;99.90
21772;DHT22;11047;47.904;8.110;2023-04-24T12:34:50;7.70;99.90
21772;DHT22;11047;47.904;8.110;2023-04-24T12:37:17;7.70;99.90
21772;DHT22;11047;47.904;8.110;2023-04-24T12:39:59;7.70;99.90
21772;DHT22;11047;47.904;8.110;2023-04-24T12:42:27;7.90;99.90
21772;DHT22;11047;47.904;8.110;2023-04-24T12:44:57;8.00;99.90
21772;DHT22;11047;47.904;8.110;2023-04-24T12:47:28;8.30;99.90
21772;DHT22;11047;47.904;8.110;2023-04-24T12:49:55;8.80;99.90
21772;DHT22;11047;47.904;8.110;2023-04-24T12:52:23;8.70;99.90
21772;DHT22;11047;47.904;8.110;2023-04-24T12:54:53;8.90;99.90
21772;DHT22;11047;47.904;8.110;2023-04-24T12:57:23;9.10;99.90
21772;DHT22;11047;47.904;8.110;2023-04-24T12:59:54;9.50;99.90
21772;DHT22;11047;47.904;8.110;2023-04-24T13:02:21;9.10;99.90
21772;DHT22;11047;47.904;8.110;2023-04-24T13:04:49;8.90;99.90
21772;DHT22;11047;47.904;8.110;2023-04-24T13:07:16;8.70;99.90
21772;DHT22;11047;47.904;8.110;2023-04-24T13:09:44;8.50;99.90
21772;DHT22;11047;47.904;8.110;2023-04-24T13:12:13;8.40;99.90
21772;DHT22;11047;47.904;8.110;2023-04-24T13:14:41;8.40;99.90
21772;DHT22;11047;47.904;8.110;2023-04-24T13:17:08;8.50;99.90
21772;DHT22;11047;47.904;8.110;2023-04-24T13:19:54;8.50;99.90
21772;DHT22;11047;47.904;8.110;2023-04-24T13:22:21;8.40;99.90
21772;DHT22;11047;47.904;8.110;2023-04-24T13:24:48;8.40;99.90
21772;DHT22;11047;47.904;8.110;2023-04-24T13:27:16;8.50;99.90
21772;DHT22;11047;47.904;8.110;2023-04-24T13:29:44;8.60;99.90
21772;DHT22;11047;47.904;8.110;2023-04-24T13:32:11;8.60;99.90
21772;DHT22;11047;47.904;8.110;2023-04-24T13:34:38;8.70;99.90
21772;DHT22;11047;47.904;8.110;2023-04-24T13:37:05;8.50;99.90
21772;DHT22;11047;47.904;8.110;2023-04-24T13:39:34;8.60;99.90
21772;DHT22;11047;47.904;8.110;2023-04-24T13:42:01;8.40;99.90
21772;DHT22;11047;47.904;8.110;2023-04-24T13:44:28;8.40;99.90
21772;DHT22;11047;47.904;8.110;2023-04-24T13:46:57;8.40;99.90
21772;DHT22;11047;47.904;8.110;2023-04-24T13:49:24;8.50;99.90
21772;DHT22;11047;47.904;8.110;2023-04-24T13:51:52;8.50;99.90
21772;DHT22;11047;47.904;8.110;2023-04-24T13:54:19;8.40;99.90
21772;DHT22;11047;47.904;8.110;2023-04-24T13:56:46;8.50;99.90
21772;DHT22;11047;47.904;8.110;2023-04-24T13:59:13;8.40;99.90
21772;DHT22;11047;47.904;8.110;2023-04-24T14:01:58;8.40;99.90
21772;DHT22;11047;47.904;8.110;2023-04-24T14:04:25;8.30;99.90
21772;DHT22;11047;47.904;8.110;2023-04-24T14:06:52;8.20;99.90
21772;DHT22;11047;47.904;8.110;2023-04-24T14:09:19;8.30;99.90
21772;DHT22;11047;47.904;8.110;2023-04-24T14:11:46;8.30;99.90
21772;DHT22;11047;47.904;8.110;2023-04-24T14:14:13;8.20;99.90
21772;DHT22;11047;47.904;8.110;2023-04-24T14:16:40;8.20;99.90
21772;DHT22;11047;47.904;8.110;2023-04-24T14:19:08;8.40;99.90
21772;DHT22;11047;47.904;8.110;2023-04-24T14:21:35;8.50;99.90
21772;DHT22;11047;47.904;8.110;2023-04-24T14:24:02;8.60;99.90
21772;DHT22;11047;47.904;8.110;2023-04-24T14:26:29;8.50;99.90
21772;DHT22;11047;47.904;8.110;2023-04-24T14:28:56;8.50;99.90
21772;DHT22;11047;47.904;8.110;2023-04-24T14:31:24;8.60;99.90
21772;DHT22;11047;47.904;8.110;2023-04-24T14:33:51;8.60;99.90
21772;DHT22;11047;47.904;8.110;2023-04-24T14:36:19;8.50;99.90
21772;DHT22;11047;47.904;8.110;2023-04-24T14:38:47;8.60;99.90
21772;DHT22;11047;47.904;8.110;2023-04-24T14:41:13;8.40;99.90
21772;DHT22;11047;47.904;8.110;2023-04-24T14:43:41;8.40;99.90
21772;DHT22;11047;47.904;8.110;2023-04-24T14:46:08;8.40;99.90
21772;DHT22;11047;47.904;8.110;2023-04-24T14:48:35;8.30;99.90
21772;DHT22;11047;47.904;8.110;2023-04-24T14:51:01;8.30;99.90
21772;DHT22;11047;47.904;8.110;2023-04-24T14:53:33;8.10;99.90
21772;DHT22;11047;47.904;8.110;2023-04-24T14:55:59;8.20;99.90
21772;DHT22;11047;47.904;8.110;2023-04-24T14:58:26;8.50;99.90
21772;DHT22;11047;47.904;8.110;2023-04-24T15:00:53;8.10;99.90
21772;DHT22;11047;47.904;8.110;2023-04-24T15:03:20;8.00;99.90
21772;DHT22;11047;47.904;8.110;2023-04-24T15:05:48;8.00;99.90
21772;DHT22;11047;47.904;8.110;2023-04-24T15:08:15;8.10;99.90
21772;DHT22;11047;47.904;8.110;2023-04-24T15:10:43;8.10;99.90
21772;DHT22;11047;47.904;8.110;2023-04-24T15:13:10;8.20;99.90
21772;DHT22;11047;47.904;8.110;2023-04-24T15:15:37;8.40;99.90
21772;DHT22;11047;47.904;8.110;2023-04-24T15:18:04;8.50;99.90
21772;DHT22;11047;47.904;8.110;2023-04-24T15:20:33;8.50;99.90
21772;DHT22;11047;47.904;8.110;2023-04-24T15:23:00;8.50;99.90
21772;DHT22;11047;47.904;8.110;2023-04-24T15:25:27;8.40;99.90
21772;DHT22;11047;47.904;8.110;2023-04-24T15:27:56;8.70;99.90
21772;DHT22;11047;47.904;8.110;2023-04-24T15:30:24;8.90;99.90
21772;DHT22;11047;47.904;8.110;2023-04-24T15:32:51;8.80;99.90
21772;DHT22;11047;47.904;8.110;2023-04-24T15:35:18;8.80;99.90
21772;DHT22;11047;47.904;8.110;2023-04-24T15:37:45;8.70;99.90
21772;DHT22;11047;47.904;8.110;2023-04-24T15:40:12;8.60;99.90
21772;DHT22;11047;47.904;8.110;2023-04-24T15:42:41;8.40;99.90
21772;DHT22;11047;47.904;8.110;2023-04-24T15:45:10;8.60;99.90
21772;DHT22;11047;47.904;8.110;2023-04-24T15:47:37;8.70;99.90
21772;DHT22;11047;47.904;8.110;2023-04-24T15:50:05;9.10;99.90
21772;DHT22;11047;47.904;8.110;2023-04-24T15:52:33;9.10;99.90
21772;DHT22;11047;47.904;8.110;2023-04-24T15:55:02;9.20;99.90